Esther, Alberta

Past 24 Hour Conditions

Date / Time
(MST)
Conditions Temp
(°F)
Humidity
(%)
Dew Point
(°F)
Wind
(mph)
Pressure
(inches)
Vis
(mi)
Wind Chill
26 November 2014
5:00 N/A 11 87 8 calm 30.4 N/A 9
4:00 N/A 9   87 6 ESE 2 30.4 N/A 6
3:00 N/A 9   85 5 N 3 30.4 N/A 3
2:00 N/A 10 86 7 ESE 6 30.4 N/A 1
1:00 N/A 10 86 7 ESE 2 30.4 N/A 7
00:00 N/A 9   87 6 calm 30.4 N/A *
25 November 2014
23:00 N/A 9   87 6 calm 30.4 N/A 7
22:00 N/A 9   87 6 calm 30.4 N/A *
21:00 N/A 12 83 7 NNE 3 30.3 N/A 7
20:00 N/A 14 83 10 NNW 5 30.3 N/A 6
19:00 N/A 15 84 11 N 2 30.3 N/A 11
18:00 N/A 15 85 12 N 4 30.3 N/A 9
17:00 N/A 16 85 13 WNW 4 30.3 N/A 10
16:00 N/A 17 82 13 NNW 4 30.3 N/A 10
15:00 N/A 18 81 13 NNW 5 30.2 N/A 10
14:00 N/A 18 80 13 N 6 30.2 N/A 9
13:00 N/A 18 79 13 N 7 30.2 N/A 9
12:00 N/A 19 79 14 N 9 30.2 N/A 8
11:00 N/A 20 81 15 N 8 30.1 N/A 9
10:00 N/A 21 83 17 N 9 30.1 N/A 10
9:00 N/A 21 87 18 NNW 9 30.0 N/A 11
8:00 N/A 22   92 20 N 10 29.9 N/A 11
7:00 N/A 20 92 18 WNW 5 29.9 N/A 13
6:00 N/A 18 92 16 WNW 5 29.8 N/A 11
5:00 N/A 17 92 15 WNW 5 29.8 N/A 9
N/A Not available
↑ Highest temperature
↓ Lowest temperature
* Value not significant.

If you require additional historical weather information, please visit Climate Data Online.

Date modified: